createdAt,value
2018-08-06T05:05:00.216Z,54.25
2018-08-06T05:10:04.319Z,54.35
2018-08-06T05:15:07.649Z,54.27
2018-08-06T05:20:10.988Z,54.08
2018-08-06T05:25:14.334Z,53.68
2018-08-06T05:30:17.663Z,53.81
2018-08-06T05:35:21.011Z,53.52
2018-08-06T05:40:25.098Z,53.48
2018-08-06T05:45:28.430Z,53.21
2018-08-06T05:50:31.793Z,53.22
2018-08-06T05:55:35.330Z,53.23
2018-08-06T06:00:38.939Z,53.26
2018-08-06T06:05:48.067Z,53.53
2018-08-06T06:10:51.609Z,53.32
2018-08-06T06:15:54.951Z,53.33
2018-08-06T06:20:58.330Z,53.29
2018-08-06T06:26:05.546Z,53.02
2018-08-06T06:31:08.868Z,52.68
2018-08-06T06:36:12.211Z,52.76
2018-08-06T06:41:16.322Z,52.57
2018-08-06T06:52:03.869Z,52.42
2018-08-06T06:57:07.194Z,52.57
2018-08-06T07:02:10.530Z,52.62
2018-08-06T07:07:14.243Z,52.64
2018-08-06T07:12:17.586Z,52.42
2018-08-06T07:17:21.701Z,52.60
2018-08-06T07:22:25.047Z,52.33
2018-08-06T07:27:28.380Z,52.15
2018-08-06T07:32:31.717Z,52.16
2018-08-06T07:37:35.059Z,52.05
2018-08-06T07:42:39.150Z,52.26
2018-08-06T07:47:42.498Z,52.03
2018-08-06T07:52:46.694Z,52.01
2018-08-06T07:57:50.039Z,51.77
2018-08-06T08:02:53.388Z,51.66
2018-08-06T08:07:56.723Z,51.48
2018-08-06T08:13:00.065Z,51.40
2018-08-06T08:18:03.420Z,51.66
2018-08-06T08:23:07.547Z,51.37
2018-08-06T08:28:10.888Z,51.17
2018-08-06T08:33:14.226Z,50.97
2018-08-06T08:38:17.567Z,50.65
2018-08-06T08:43:21.670Z,50.78
2018-08-06T08:48:25.006Z,50.71
2018-08-06T08:53:28.355Z,50.53
2018-08-06T08:58:31.756Z,50.65
2018-08-06T09:03:35.083Z,50.38
2018-08-06T09:08:38.431Z,50.24
2018-08-06T09:13:41.766Z,49.89
2018-08-06T09:18:45.906Z,49.71
2018-08-06T09:23:50.024Z,48.85
2018-08-06T09:28:53.370Z,49.15
2018-08-06T09:33:56.711Z,48.65
2018-08-06T09:39:00.055Z,47.81
2018-08-06T09:44:03.556Z,47.97
2018-08-06T09:49:06.931Z,47.54
2018-08-06T09:54:10.299Z,47.04
2018-08-06T09:59:13.646Z,46.60
2018-08-06T10:04:17.746Z,45.84
2018-08-06T10:09:21.090Z,45.38
2018-08-06T10:14:25.378Z,44.45
2018-08-06T10:19:28.965Z,43.41
2018-08-06T10:24:33.379Z,43.00
2018-08-06T10:29:36.685Z,42.52
2018-08-06T10:34:40.968Z,41.28
2018-08-06T10:39:44.334Z,41.62
2018-08-06T10:44:48.454Z,40.91
2018-08-06T10:49:52.755Z,40.04
2018-08-06T10:54:56.116Z,39.87
2018-08-06T11:00:00.207Z,39.25
2018-08-06T11:05:03.543Z,39.28
2018-08-06T11:10:06.874Z,39.38
2018-08-06T11:15:10.203Z,39.11
2018-08-06T11:20:13.570Z,39.20
2018-08-06T11:25:16.906Z,39.49
2018-08-06T11:30:21.002Z,39.54
2018-08-06T11:35:24.341Z,39.05
2018-08-06T11:40:28.450Z,39.20
2018-08-06T11:45:31.777Z,39.05
2018-08-06T11:50:35.110Z,38.79
2018-08-06T11:55:38.449Z,38.26
2018-08-06T12:00:41.787Z,38.06
2018-08-06T12:05:45.203Z,37.98
2018-08-06T12:10:48.538Z,37.64
2018-08-06T12:15:52.658Z,37.42
2018-08-06T12:20:56.057Z,36.92
2018-08-06T12:25:59.459Z,36.56
2018-08-06T12:31:02.721Z,36.27
2018-08-06T12:36:06.833Z,35.54
2018-08-06T12:41:10.200Z,35.20
2018-08-06T12:46:13.543Z,34.91
2018-08-06T12:51:16.901Z,34.55
2018-08-06T12:56:20.234Z,34.11
2018-08-06T13:01:23.562Z,33.78
2018-08-06T13:06:26.901Z,32.85
2018-08-06T13:11:30.243Z,32.87
2018-08-06T13:16:34.350Z,32.50
2018-08-06T13:21:37.699Z,31.98
2018-08-06T13:26:41.029Z,32.01
2018-08-06T13:31:44.358Z,31.19
2018-08-06T13:36:47.719Z,30.80
2018-08-06T13:41:51.040Z,29.54
2018-08-06T13:46:55.176Z,29.61
2018-08-06T13:51:58.489Z,29.05
2018-08-06T13:57:01.828Z,28.86
2018-08-06T14:02:05.175Z,28.22
2018-08-06T14:07:08.569Z,27.57
2018-08-06T14:12:11.862Z,26.92
2018-08-06T14:17:15.194Z,27.02
2018-08-06T14:22:18.525Z,26.27
2018-08-06T14:27:21.856Z,25.65
2018-08-06T14:32:25.227Z,25.91
2018-08-06T14:37:28.584Z,25.84
2018-08-06T14:42:32.741Z,25.73
2018-08-06T14:47:36.099Z,25.20
2018-08-06T14:52:39.461Z,25.19
2018-08-06T14:57:42.849Z,25.09
2018-08-06T15:02:46.271Z,24.59
2018-08-06T15:07:50.553Z,23.58
2018-08-06T15:12:54.083Z,24.39
2018-08-06T15:17:57.597Z,24.44
2018-08-06T15:23:00.930Z,23.19
2018-08-06T15:28:05.035Z,22.48
2018-08-06T15:33:08.387Z,21.78
2018-08-06T15:38:12.482Z,21.83
2018-08-06T15:43:15.830Z,21.38
2018-08-06T15:48:19.936Z,20.90
2018-08-06T15:53:23.274Z,20.50
2018-08-06T15:58:26.614Z,21.20
2018-08-06T16:03:29.961Z,21.54
2018-08-06T16:08:33.294Z,20.82
2018-08-06T16:13:36.625Z,20.52
2018-08-06T16:18:40.731Z,20.34
2018-08-06T16:23:44.076Z,20.09
2018-08-06T16:28:47.422Z,20.89
2018-08-06T16:33:50.755Z,20.64
2018-08-06T16:38:54.091Z,20.99
2018-08-06T16:43:57.418Z,20.72
2018-08-06T16:49:01.533Z,20.72
2018-08-06T16:54:04.870Z,20.92
2018-08-06T16:59:08.978Z,20.73
2018-08-06T17:04:12.449Z,20.79
2018-08-06T17:09:16.286Z,20.42
2018-08-06T17:14:48.195Z,21.55
2018-08-06T17:19:51.775Z,21.26
2018-08-06T17:24:55.524Z,21.65
2018-08-06T17:30:00.651Z,21.65
2018-08-06T17:35:04.323Z,21.76
2018-08-06T17:40:08.744Z,21.96
2018-08-06T17:45:13.164Z,22.28
2018-08-06T17:50:16.757Z,22.64
2018-08-06T17:55:20.492Z,23.22
2018-08-06T18:00:24.021Z,23.51
2018-08-06T18:05:27.547Z,23.86
2018-08-06T18:10:31.799Z,24.18
2018-08-06T18:15:36.093Z,24.56
2018-08-06T18:20:42.608Z,24.73
2018-08-06T18:25:47.116Z,25.91
2018-08-06T18:30:50.617Z,26.06
2018-08-06T18:35:54.365Z,26.55
2018-08-06T18:40:57.707Z,27.21
2018-08-06T18:46:01.047Z,27.23
2018-08-06T18:51:05.147Z,27.44
2018-08-06T18:56:20.322Z,27.31
2018-08-06T19:01:23.812Z,27.24
2018-08-06T19:06:29.243Z,27.30
2018-08-06T19:11:33.697Z,27.33
2018-08-06T19:16:43.155Z,29.41
2018-08-06T19:21:46.770Z,31.87
2018-08-06T19:26:50.377Z,30.48
2018-08-06T19:31:54.008Z,30.07
2018-08-06T19:36:57.801Z,30.38
2018-08-06T19:42:01.453Z,30.44
2018-08-06T19:47:05.164Z,30.33
2018-08-06T19:52:08.741Z,30.54
2018-08-06T19:57:13.211Z,30.77
2018-08-06T20:02:16.643Z,30.68
2018-08-06T20:07:19.890Z,30.60
2018-08-06T20:12:23.269Z,30.52
2018-08-06T20:17:26.597Z,30.54
2018-08-06T20:22:30.322Z,30.65
2018-08-06T20:27:33.842Z,30.77
2018-08-06T20:32:37.185Z,30.92
2018-08-06T20:37:40.531Z,31.10
2018-08-06T20:42:44.630Z,31.31
2018-08-06T20:47:47.967Z,31.59
2018-08-06T20:52:52.056Z,31.79
2018-08-06T20:57:55.383Z,32.06
2018-08-06T21:02:58.761Z,32.46
2018-08-06T21:08:02.072Z,33.29
2018-08-06T21:13:05.420Z,33.63
2018-08-06T21:18:08.752Z,34.09
2018-08-06T21:23:12.839Z,34.33
2018-08-06T21:28:16.352Z,34.41
2018-08-06T21:33:19.876Z,34.55
2018-08-06T21:38:23.302Z,34.64
2018-08-06T21:43:26.638Z,35.16
2018-08-06T21:48:29.976Z,36.46
2018-08-06T21:53:33.314Z,36.32
2018-08-06T21:58:36.674Z,37.08
2018-08-06T22:03:39.999Z,37.59
2018-08-06T22:08:43.325Z,37.79
2018-08-06T22:13:46.659Z,38.28
2018-08-06T22:18:50.047Z,38.16
2018-08-06T22:23:53.339Z,38.18
2018-08-06T22:28:56.670Z,38.45
